Time;durP1;ratioP1;P1;durP2;ratioP2;P2;SDS_P1;SDS_P2;PMS_P1;PMS_P2;Temp;Humidity;BMP_temperature;BMP_pressure;BME280_temperature;BME280_humidity;BME280_pressure;Samples;Min_cycle;Max_cycle;Signal;HPM_P1;HPM_P2
2022/11/13 00:00:52;;;;;;;;;;;;;;;9.93;63.54;96365.25;5011162;28;20014;-69
2022/11/13 00:03:17;;;;;;;;;;;;;;;9.99;63.97;96372.97;5012959;28;20010;-69
2022/11/13 00:05:43;;;;;;;;;;;;;;;9.85;63.66;96354.13;5009853;28;20014;-68
2022/11/13 00:08:08;;;;;;;;;;;;;;;9.95;63.92;96360.50;5012578;28;20014;-69
2022/11/13 00:10:33;;;;;;;;;;;;;;;9.85;63.66;96354.13;5010340;28;20018;-70
2022/11/13 00:12:58;;;;;;;;;;;;;;;9.93;62.82;96359.94;5012855;28;20241;-70
2022/11/13 00:15:24;;;;;;;;;;;;;;;10.01;63.60;96356.75;5005675;28;20156;-70
2022/11/13 00:17:50;;;;;;;;;;;;;;;10.17;63.28;96350.31;5012691;28;20530;-69
2022/11/13 00:20:16;;;;;;;;;;;;;;;10.15;62.12;96347.94;5011643;28;20014;-70
2022/11/13 00:22:41;;;;;;;;;;;;;;;10.18;62.59;96340.47;5011789;28;20014;-69
2022/11/13 00:25:06;;;;;;;;;;;;;;;10.14;62.43;96338.38;5010840;28;20015;-70
2022/11/13 00:27:31;;;;;;;;;;;;;;;10.06;62.32;96333.59;5011195;28;20066;-70
2022/11/13 00:29:57;;;;;;;;;;;;;;;10.06;62.88;96333.59;5012519;28;20010;-70
2022/11/13 00:32:22;;;;;;;;;;;;;;;9.95;62.78;96333.91;5010898;28;20015;-70
2022/11/13 00:34:47;;;;;;;;;;;;;;;9.87;63.43;96330.72;5010304;28;20466;-71
2022/11/13 00:37:12;;;;;;;;;;;;;;;9.88;63.29;96332.34;5011386;28;20010;-69
2022/11/13 00:39:37;;;;;;;;;;;;;;;9.81;63.56;96325.69;5013024;28;20031;-70
2022/11/13 00:42:03;;;;;;;;;;;;;;;9.93;63.15;96328.06;5009730;28;20015;-69
2022/11/13 00:44:28;;;;;;;;;;;;;;;9.82;63.83;96328.06;5006216;28;20117;-69
2022/11/13 00:46:53;;;;;;;;;;;;;;;9.95;63.82;96326.72;5008111;28;20149;-69
2022/11/13 00:49:18;;;;;;;;;;;;;;;9.84;63.43;96319.84;5012143;28;20060;-69
2022/11/13 00:51:43;;;;;;;;;;;;;;;9.70;64.13;96321.47;5011227;28;20022;-69
2022/11/13 00:54:09;;;;;;;;;;;;;;;9.65;63.64;96311.66;5010310;28;20014;-69
2022/11/13 00:56:34;;;;;;;;;;;;;;;9.80;64.50;96318.78;5008285;28;20049;-70
2022/11/13 00:58:59;;;;;;;;;;;;;;;9.83;64.13;96313.75;5012352;28;20013;-69
2022/11/13 01:01:24;;;;;;;;;;;;;;;9.95;63.60;96313.44;5009023;28;20517;-69
2022/11/13 01:03:49;;;;;;;;;;;;;;;10.01;62.77;96311.56;5011832;28;20046;-69
2022/11/13 01:06:17;;;;;;;;;;;;;;;10.07;63.51;96313.91;5010113;28;20018;-70
2022/11/13 01:08:42;;;;;;;;;;;;;;;10.11;62.85;96303.53;5009944;28;20011;-69
2022/11/13 01:11:18;;;;;;;;;;;;;;;10.07;62.75;96305.94;5006440;28;20017;-69
2022/11/13 01:13:45;;;;;;;;;;;;;;;10.12;63.06;96303.25;4990736;28;20014;-69
2022/11/13 01:16:11;;;;;;;;;;;;;;;9.95;62.40;96292.19;5004280;28;20485;-69
2022/11/13 01:18:36;;;;;;;;;;;;;;;10.13;62.30;96285.44;5011545;28;20006;-69
2022/11/13 01:21:06;;;;;;;;;;;;;;;10.05;62.54;96286.81;5010164;28;20467;-72
2022/11/13 01:23:31;;;;;;;;;;;;;;;10.07;61.67;96279.38;5011353;28;20463;-71
2022/11/13 01:26:03;;;;;;;;;;;;;;;10.06;62.66;96279.63;5009959;28;20025;-70
2022/11/13 01:28:28;;;;;;;;;;;;;;;10.11;62.49;96275.09;5010308;28;20017;-69
2022/11/13 01:30:53;;;;;;;;;;;;;;;10.20;61.84;96279.84;5008116;28;20014;-71
2022/11/13 01:33:18;;;;;;;;;;;;;;;10.11;60.98;96271.66;5011372;28;20459;-73
2022/11/13 01:35:43;;;;;;;;;;;;;;;10.10;61.69;96272.72;5009425;28;20018;-73
2022/11/13 01:38:09;;;;;;;;;;;;;;;10.10;61.40;96270.06;5011481;28;20101;-71
2022/11/13 01:40:34;;;;;;;;;;;;;;;10.11;60.99;96261.00;5009214;28;20505;-68
2022/11/13 01:43:10;;;;;;;;;;;;;;;9.99;61.64;96260.53;5010485;28;20014;-68
2022/11/13 01:46:04;;;;;;;;;;;;;;;10.00;61.45;96254.94;5007978;28;20057;-68
2022/11/13 01:48:37;;;;;;;;;;;;;;;9.80;61.66;96247.84;5009920;28;20064;-69
2022/11/13 01:51:10;;;;;;;;;;;;;;;9.96;61.37;96245.13;5008971;28;20014;-70
2022/11/13 01:53:35;;;;;;;;;;;;;;;10.04;60.96;96249.88;5010764;28;20006;-70
2022/11/13 01:56:00;;;;;;;;;;;;;;;10.06;60.93;96248.53;5008800;28;20823;-69
2022/11/13 01:58:26;;;;;;;;;;;;;;;10.09;60.66;96245.34;5009690;28;20015;-71
2022/11/13 02:00:51;;;;;;;;;;;;;;;10.09;61.27;96248.00;5008032;28;20010;-70
2022/11/13 02:03:16;;;;;;;;;;;;;;;10.04;60.57;96236.59;5009853;28;20013;-70
2022/11/13 02:05:42;;;;;;;;;;;;;;;10.06;60.79;96250.41;5009250;28;20018;-70
2022/11/13 02:08:07;;;;;;;;;;;;;;;9.93;60.89;96237.69;5008886;28;20493;-70
2022/11/13 02:10:32;;;;;;;;;;;;;;;9.72;61.55;96237.75;5008039;28;20384;-70
2022/11/13 02:12:57;;;;;;;;;;;;;;;9.74;61.81;96229.53;5010731;28;20006;-70
2022/11/13 02:15:24;;;;;;;;;;;;;;;9.52;62.17;96236.00;5008036;28;20025;-70
2022/11/13 02:17:51;;;;;;;;;;;;;;;9.60;62.40;96229.31;5010730;28;20407;-70
2022/11/13 02:20:36;;;;;;;;;;;;;;;9.72;62.18;96236.97;5007943;28;20022;-70
2022/11/13 02:23:08;;;;;;;;;;;;;;;9.79;61.73;96227.66;5010317;28;20380;-70
2022/11/13 02:25:33;;;;;;;;;;;;;;;9.80;62.38;96218.63;5008167;28;20057;-70
2022/11/13 02:27:59;;;;;;;;;;;;;;;9.84;61.78;96224.19;5009750;28;20151;-70
2022/11/13 02:30:24;;;;;;;;;;;;;;;9.90;61.21;96226.53;5006889;28;20495;-70
2022/11/13 02:32:50;;;;;;;;;;;;;;;9.75;61.88;96217.84;5009129;28;20014;-70
2022/11/13 02:35:21;;;;;;;;;;;;;;;9.60;61.78;96210.72;5009181;28;20022;-72
2022/11/13 02:37:46;;;;;;;;;;;;;;;9.66;61.86;96211.50;5010407;28;20502;-70
2022/11/13 02:40:11;;;;;;;;;;;;;;;9.56;62.32;96204.34;5009691;28;20018;-70
2022/11/13 02:42:37;;;;;;;;;;;;;;;9.65;61.81;96202.72;5008686;28;20014;-70
2022/11/13 02:45:02;;;;;;;;;;;;;;;9.60;62.57;96203.53;5008925;28;20068;-70
2022/11/13 02:47:27;;;;;;;;;;;;;;;9.72;62.48;96199.78;5009206;28;20018;-69
2022/11/13 02:49:53;;;;;;;;;;;;;;;9.76;62.24;96196.31;5009478;28;20014;-70
2022/11/13 02:52:18;;;;;;;;;;;;;;;9.75;61.99;96197.38;5009201;28;20014;-70
2022/11/13 02:54:43;;;;;;;;;;;;;;;9.84;61.96;96182.47;5010174;28;20105;-71
2022/11/13 02:57:08;;;;;;;;;;;;;;;9.89;61.62;96181.66;5010226;28;20017;-70
2022/11/13 02:59:34;;;;;;;;;;;;;;;9.90;61.70;96180.56;5014133;28;20007;-69
2022/11/13 03:01:59;;;;;;;;;;;;;;;9.80;61.47;96183.28;5012801;28;20046;-69
2022/11/13 03:04:24;;;;;;;;;;;;;;;9.77;61.01;96184.59;5014172;28;20007;-70
2022/11/13 03:06:49;;;;;;;;;;;;;;;9.82;61.37;96173.94;5012490;28;20022;-69
2022/11/13 03:09:14;;;;;;;;;;;;;;;9.88;61.62;96172.09;5014004;28;20006;-69
2022/11/13 03:11:41;;;;;;;;;;;;;;;9.93;60.80;96169.41;5012729;28;20224;-70
2022/11/13 03:14:06;;;;;;;;;;;;;;;9.94;61.33;96160.38;5012689;28;20138;-69
2022/11/13 03:16:33;;;;;;;;;;;;;;;9.98;61.34;96155.28;5010669;28;20038;-70
2022/11/13 03:18:58;;;;;;;;;;;;;;;9.98;61.02;96164.06;5013870;28;20007;-70
2022/11/13 03:21:23;;;;;;;;;;;;;;;10.00;60.77;96153.16;5011315;28;20014;-69
2022/11/13 03:23:48;;;;;;;;;;;;;;;10.02;61.50;96148.34;5012594;28;20502;-70
2022/11/13 03:26:15;;;;;;;;;;;;;;;10.02;61.00;96151.00;5010693;28;20022;-70
2022/11/13 03:28:41;;;;;;;;;;;;;;;10.06;61.23;96152.84;5012537;28;20485;-70
2022/11/13 03:31:06;;;;;;;;;;;;;;;10.06;61.12;96149.38;5011118;28;20014;-70
2022/11/13 03:33:32;;;;;;;;;;;;;;;10.02;61.13;96148.34;5010323;28;20046;-70
2022/11/13 03:35:57;;;;;;;;;;;;;;;9.98;61.58;96147.28;5011858;28;20011;-71
2022/11/13 03:38:23;;;;;;;;;;;;;;;9.94;61.22;96140.97;5012687;28;20486;-70
2022/11/13 03:40:48;;;;;;;;;;;;;;;9.82;61.67;96136.75;5010897;28;20014;-70
2022/11/13 03:43:13;;;;;;;;;;;;;;;9.85;61.26;96136.22;5013595;28;20012;-71
2022/11/13 03:45:38;;;;;;;;;;;;;;;9.87;61.05;96122.66;5009793;28;20521;-71
2022/11/13 03:48:04;;;;;;;;;;;;;;;9.74;61.14;96118.75;5013379;28;20021;-70
2022/11/13 03:50:29;;;;;;;;;;;;;;;9.70;60.80;96122.22;5011917;28;20021;-70
2022/11/13 03:52:54;;;;;;;;;;;;;;;9.77;60.69;96122.69;5012461;28;20006;-69
2022/11/13 03:55:19;;;;;;;;;;;;;;;9.71;60.80;96116.63;5009979;28;20050;-70
2022/11/13 03:57:48;;;;;;;;;;;;;;;9.68;60.40;96111.88;5011922;28;20015;-70
2022/11/13 04:00:14;;;;;;;;;;;;;;;9.55;60.71;96107.94;5011160;28;20021;-72
2022/11/13 04:02:39;;;;;;;;;;;;;;;9.21;61.44;96104.38;5011128;28;20045;-71
2022/11/13 04:05:05;;;;;;;;;;;;;;;8.94;61.94;96104.72;5011411;28;20021;-69
2022/11/13 04:07:30;;;;;;;;;;;;;;;8.78;62.62;96110.06;5009542;28;20014;-69
2022/11/13 04:09:55;;;;;;;;;;;;;;;8.87;62.49;96099.69;4998296;28;20617;-69
2022/11/13 04:12:20;;;;;;;;;;;;;;;8.91;63.00;96106.06;5012839;28;20006;-69
2022/11/13 04:14:46;;;;;;;;;;;;;;;8.92;62.37;96091.72;5010204;28;20046;-69
2022/11/13 04:17:11;;;;;;;;;;;;;;;9.01;62.53;96094.63;5011444;28;20080;-69
2022/11/13 04:19:36;;;;;;;;;;;;;;;9.10;62.16;96093.00;5010740;28;20010;-70
2022/11/13 04:22:01;;;;;;;;;;;;;;;9.14;61.81;96102.00;5012687;28;20010;-70
2022/11/13 04:24:26;;;;;;;;;;;;;;;9.20;62.32;96097.47;5010723;28;20010;-70
2022/11/13 04:26:52;;;;;;;;;;;;;;;9.17;61.69;96098.81;5012016;28;20025;-69
2022/11/13 04:29:17;;;;;;;;;;;;;;;9.16;61.80;96096.41;5010066;28;20117;-69
2022/11/13 04:31:42;;;;;;;;;;;;;;;9.20;61.95;96086.84;5007616;28;20029;-70
2022/11/13 04:34:07;;;;;;;;;;;;;;;9.19;61.88;96093.22;5012643;28;20092;-70
2022/11/13 04:36:33;;;;;;;;;;;;;;;9.21;61.34;96086.56;5010854;28;20020;-70
2022/11/13 04:38:58;;;;;;;;;;;;;;;9.17;61.61;96087.41;5011273;28;20017;-70
2022/11/13 04:44:07;;;;;;;;;;;;;;;9.15;61.30;96089.53;5011432;28;20068;-70
2022/11/13 04:46:32;;;;;;;;;;;;;;;9.05;61.17;96079.75;5010245;28;20015;-70
2022/11/13 04:48:57;;;;;;;;;;;;;;;8.93;61.55;96079.25;5010754;28;20018;-70
2022/11/13 04:51:22;;;;;;;;;;;;;;;8.63;61.84;96072.94;5011537;28;20006;-70
2022/11/13 04:53:48;;;;;;;;;;;;;;;8.68;61.92;96072.16;5010452;28;20505;-69
2022/11/13 04:56:13;;;;;;;;;;;;;;;8.55;62.00;96066.34;5010422;28;20007;-69
2022/11/13 04:58:38;;;;;;;;;;;;;;;8.42;61.70;96068.75;5011029;28;20064;-69
2022/11/13 05:01:03;;;;;;;;;;;;;;;8.50;62.11;96063.72;5008738;28;20061;-69
2022/11/13 05:03:28;;;;;;;;;;;;;;;8.47;61.97;96069.53;5012057;28;20002;-70
2022/11/13 05:06:00;;;;;;;;;;;;;;;8.47;61.93;96066.88;5009443;28;20117;-70
2022/11/13 05:08:25;;;;;;;;;;;;;;;8.53;61.91;96057.06;5011375;28;20613;-70
2022/11/13 05:10:51;;;;;;;;;;;;;;;8.45;62.02;96063.72;5010384;28;20157;-70
2022/11/13 05:13:16;;;;;;;;;;;;;;;8.55;61.64;96049.66;5011332;28;20015;-70
2022/11/13 05:15:41;;;;;;;;;;;;;;;8.54;61.87;96059.44;5007959;28;20547;-71
2022/11/13 05:18:06;;;;;;;;;;;;;;;8.60;61.54;96060.25;5011485;28;20018;-70
2022/11/13 05:20:31;;;;;;;;;;;;;;;8.70;61.40;96054.91;5010564;28;20093;-70
2022/11/13 05:22:56;;;;;;;;;;;;;;;8.65;61.50;96052.28;5010465;28;20034;-70
2022/11/13 05:25:22;;;;;;;;;;;;;;;8.57;61.54;96043.00;5009011;28;20534;-70
2022/11/13 05:27:47;;;;;;;;;;;;;;;8.46;61.13;96051.25;5011437;28;20022;-70
2022/11/13 05:30:12;;;;;;;;;;;;;;;8.41;61.54;96045.97;5009004;28;20064;-70
2022/11/13 05:32:37;;;;;;;;;;;;;;;8.48;61.59;96049.13;5010057;28;20013;-70
2022/11/13 05:35:03;;;;;;;;;;;;;;;8.29;61.54;96044.34;5009693;28;20014;-69
2022/11/13 05:37:28;;;;;;;;;;;;;;;8.26;61.79;96036.91;5009668;28;20398;-70
2022/11/13 05:39:53;;;;;;;;;;;;;;;8.34;61.93;96035.56;5010001;28;20387;-70
2022/11/13 05:42:18;;;;;;;;;;;;;;;8.36;61.74;96024.72;5010317;28;20571;-69
2022/11/13 05:44:44;;;;;;;;;;;;;;;8.34;61.77;96024.97;5009326;28;20021;-69
2022/11/13 05:47:09;;;;;;;;;;;;;;;8.40;61.34;96023.16;5009140;28;20014;-69
2022/11/13 05:49:34;;;;;;;;;;;;;;;8.32;61.28;96011.19;5011090;28;20016;-69
2022/11/13 05:51:59;;;;;;;;;;;;;;;7.88;62.00;96013.59;5010142;28;20057;-69
2022/11/13 05:54:24;;;;;;;;;;;;;;;8.05;62.10;96022.09;5010878;28;20463;-69
2022/11/13 05:56:50;;;;;;;;;;;;;;;8.15;61.99;96018.66;5008967;28;20166;-69
2022/11/13 05:59:15;;;;;;;;;;;;;;;8.31;61.78;96017.56;5009614;28;20068;-69
2022/11/13 06:01:40;;;;;;;;;;;;;;;8.09;61.37;96009.91;5009511;28;20017;-70
2022/11/13 06:04:06;;;;;;;;;;;;;;;8.20;61.47;96008.06;5007394;28;20010;-70
2022/11/13 06:06:32;;;;;;;;;;;;;;;7.74;61.91;96002.75;5009901;28;20105;-69
2022/11/13 06:08:58;;;;;;;;;;;;;;;7.78;62.29;96009.91;5008318;28;20153;-70
2022/11/13 06:11:24;;;;;;;;;;;;;;;7.79;62.19;96000.91;5009108;28;20013;-70
2022/11/13 06:13:50;;;;;;;;;;;;;;;7.59;62.55;95994.81;5009294;28;20010;-69
2022/11/13 06:16:16;;;;;;;;;;;;;;;7.60;62.58;95991.88;5008337;28;20021;-70
2022/11/13 06:18:42;;;;;;;;;;;;;;;7.54;62.44;95996.38;5010398;28;20013;-70
2022/11/13 06:21:12;;;;;;;;;;;;;;;7.66;62.45;95996.13;5008187;28;20061;-70
2022/11/13 06:23:38;;;;;;;;;;;;;;;7.65;62.75;95986.59;5010610;28;20032;-70
2022/11/13 06:26:04;;;;;;;;;;;;;;;7.62;62.34;95986.31;5008907;28;20419;-70
2022/11/13 06:28:29;;;;;;;;;;;;;;;6.94;62.69;95907.13;5006964;28;20018;-69
2022/11/13 06:30:55;;;;;;;;;;;;;;;7.47;62.26;95979.16;5003666;28;20065;-69
2022/11/13 06:33:20;;;;;;;;;;;;;;;7.34;62.41;95980.47;5008813;28;20486;-70
2022/11/13 06:35:45;;;;;;;;;;;;;;;7.23;63.02;95977.03;5007874;28;20025;-70
2022/11/13 06:38:11;;;;;;;;;;;;;;;7.19;63.26;95970.66;5010095;28;20525;-71
2022/11/13 06:40:39;;;;;;;;;;;;;;;7.22;63.32;95964.84;5008265;28;20016;-72
2022/11/13 06:43:04;;;;;;;;;;;;;;;7.34;63.36;95959.31;5009994;28;20013;-71
2022/11/13 06:45:29;;;;;;;;;;;;;;;7.32;63.01;95972.03;4997371;28;20029;-74
2022/11/13 06:47:54;;;;;;;;;;;;;;;7.34;63.06;95961.16;5009809;28;20014;-72
2022/11/13 06:50:20;;;;;;;;;;;;;;;7.46;62.82;95964.34;5007165;28;20014;-71
2022/11/13 06:52:45;;;;;;;;;;;;;;;7.55;62.43;95954.81;5010549;28;20382;-72
2022/11/13 06:55:10;;;;;;;;;;;;;;;7.59;62.54;95950.59;5005467;28;20010;-69
2022/11/13 06:57:35;;;;;;;;;;;;;;;7.69;62.53;95941.84;4992154;28;20478;-72
2022/11/13 07:00:01;;;;;;;;;;;;;;;7.76;61.96;95940.50;5002224;28;20397;-68
2022/11/13 07:02:26;;;;;;;;;;;;;;;7.86;62.00;95936.28;5009036;28;20385;-70
2022/11/13 07:04:51;;;;;;;;;;;;;;;7.87;61.15;95925.41;5002726;28;20419;-75
2022/11/13 07:07:16;;;;;;;;;;;;;;;8.06;61.56;95931.75;5008272;28;20019;-76
2022/11/13 07:09:41;;;;;;;;;;;;;;;8.13;61.23;95912.13;5000993;28;20722;-68
2022/11/13 07:12:06;;;;;;;;;;;;;;;7.98;60.71;95934.91;5004000;28;20011;-74
2022/11/13 07:14:32;;;;;;;;;;;;;;;8.17;60.48;95934.38;4999175;28;20022;-75
2022/11/13 07:16:57;;;;;;;;;;;;;;;8.05;60.01;95934.66;4996900;28;20069;-75
2022/11/13 07:19:22;;;;;;;;;;;;;;;8.00;59.88;95924.88;4999091;28;20466;-75
2022/11/13 07:21:47;;;;;;;;;;;;;;;8.07;60.13;95925.38;4998415;28;20097;-74
2022/11/13 07:24:12;;;;;;;;;;;;;;;8.07;59.94;95919.28;5000382;28;20093;-74
2022/11/13 07:26:38;;;;;;;;;;;;;;;7.84;61.09;95914.56;4999051;28;20069;-74
2022/11/13 07:29:03;;;;;;;;;;;;;;;7.97;60.25;95914.00;5000138;28;20065;-73
2022/11/13 07:31:28;;;;;;;;;;;;;;;7.78;60.70;95909.28;5001377;28;20410;-75
2022/11/13 07:33:53;;;;;;;;;;;;;;;7.85;60.46;95914.28;5002731;28;20459;-73
2022/11/13 07:36:18;;;;;;;;;;;;;;;7.82;60.72;95914.81;4997933;28;20007;-74
2022/11/13 07:38:44;;;;;;;;;;;;;;;7.92;60.66;95927.25;4997581;28;20471;-74
2022/11/13 07:41:09;;;;;;;;;;;;;;;8.12;61.17;95937.03;4999403;28;20013;-72
2022/11/13 07:43:34;;;;;;;;;;;;;;;8.34;60.24;95943.63;5006318;28;20010;-70
2022/11/13 07:46:00;;;;;;;;;;;;;;;8.61;59.89;95947.78;5013638;28;20029;-72
2022/11/13 07:48:26;;;;;;;;;;;;;;;8.95;59.19;95952.41;5012122;28;20805;-73
2022/11/13 07:50:51;;;;;;;;;;;;;;;9.22;58.44;95962.63;5013156;28;20010;-73
2022/11/13 07:53:17;;;;;;;;;;;;;;;9.45;57.74;95971.75;5011202;28;20056;-71
2022/11/13 07:55:42;;;;;;;;;;;;;;;9.63;57.50;95968.47;5012853;28;20015;-71
2022/11/13 07:58:08;;;;;;;;;;;;;;;9.77;55.91;95974.72;5012018;28;20011;-71
2022/11/13 08:00:33;;;;;;;;;;;;;;;9.82;55.85;95972.00;5012170;28;20098;-72
2022/11/13 08:03:06;;;;;;;;;;;;;;;10.00;55.50;95964.44;5013262;28;20018;-73
2022/11/13 08:05:31;;;;;;;;;;;;;;;10.07;54.78;95973.66;5003140;28;20006;-73
2022/11/13 08:07:56;;;;;;;;;;;;;;;9.08;56.50;95976.50;4996201;28;20025;-72
2022/11/13 08:10:22;;;;;;;;;;;;;;;9.31;56.12;95967.06;4997296;28;20097;-73
2022/11/13 08:12:47;;;;;;;;;;;;;;;9.47;56.16;95954.50;4998962;28;20093;-73
2022/11/13 08:15:13;;;;;;;;;;;;;;;9.53;55.61;95961.34;5010635;28;20011;-75
2022/11/13 08:17:38;;;;;;;;;;;;;;;9.59;55.75;95951.50;5000559;28;20017;-75
2022/11/13 08:20:04;;;;;;;;;;;;;;;9.71;55.81;95951.91;4993159;28;20014;-73
2022/11/13 08:22:32;;;;;;;;;;;;;;;9.73;55.93;95944.47;5000007;28;20310;-73
2022/11/13 08:24:57;;;;;;;;;;;;;;;9.72;55.38;95929.59;5012325;28;20048;-73
2022/11/13 08:27:22;;;;;;;;;;;;;;;9.56;55.86;95920.16;5012544;28;20390;-74
2022/11/13 08:29:48;;;;;;;;;;;;;;;9.84;55.08;95919.41;5011306;28;20092;-74
2022/11/13 08:32:14;;;;;;;;;;;;;;;9.97;54.40;95925.13;5012666;28;20007;-71
2022/11/13 08:34:39;;;;;;;;;;;;;;;10.02;54.75;95922.41;5011274;28;20017;-72
2022/11/13 08:37:04;;;;;;;;;;;;;;;10.14;54.69;95914.88;5010051;28;20015;-74
2022/11/13 08:39:30;;;;;;;;;;;;;;;10.12;54.83;95919.66;5012496;28;20006;-73
2022/11/13 08:41:55;;;;;;;;;;;;;;;10.12;55.04;95917.00;5011034;28;20474;-72
2022/11/13 08:44:20;;;;;;;;;;;;;;;10.23;54.37;95918.47;5011968;28;20010;-73
2022/11/13 08:46:45;;;;;;;;;;;;;;;10.04;54.17;95915.75;5010500;28;20110;-73
2022/11/13 08:49:11;;;;;;;;;;;;;;;10.02;54.38;95925.88;5012084;28;20411;-74
2022/11/13 08:51:36;;;;;;;;;;;;;;;9.88;54.77;95919.63;5012094;28;20006;-73
2022/11/13 08:54:01;;;;;;;;;;;;;;;10.03;54.98;95911.53;5011985;28;20017;-72
2022/11/13 08:56:26;;;;;;;;;;;;;;;9.39;55.68;95904.63;5010833;28;20490;-71
2022/11/13 08:58:51;;;;;;;;;;;;;;;9.11;57.00;95903.50;5009951;28;20494;-69
2022/11/13 09:01:17;;;;;;;;;;;;;;;8.78;58.02;95907.66;5011738;28;20032;-71
2022/11/13 09:03:42;;;;;;;;;;;;;;;8.35;59.39;95912.59;5012004;28;20022;-72
2022/11/13 09:06:07;;;;;;;;;;;;;;;8.65;59.00;95913.53;5011336;28;20007;-72
2022/11/13 09:08:33;;;;;;;;;;;;;;;8.63;58.78;95913.03;5010936;28;20014;-72
2022/11/13 09:11:03;;;;;;;;;;;;;;;8.55;59.55;95911.75;5011000;28;20018;-72
2022/11/13 09:13:28;;;;;;;;;;;;;;;8.63;59.31;95911.19;5010497;28;20060;-71
2022/11/13 09:15:53;;;;;;;;;;;;;;;8.67;59.43;95919.41;5011273;28;20053;-71
2022/11/13 09:18:19;;;;;;;;;;;;;;;8.79;59.47;95922.50;5011652;28;20057;-72
2022/11/13 09:20:44;;;;;;;;;;;;;;;8.92;59.24;95910.53;5009507;28;20434;-72
2022/11/13 09:23:09;;;;;;;;;;;;;;;8.98;58.85;95909.41;5011529;28;20006;-73
2022/11/13 09:25:35;;;;;;;;;;;;;;;9.08;58.60;95919.97;5011192;28;20021;-73
2022/11/13 09:28:01;;;;;;;;;;;;;;;9.20;58.56;95923.06;5011452;28;20046;-71
2022/11/13 09:30:26;;;;;;;;;;;;;;;9.25;59.13;95912.41;5011091;28;20016;-71
2022/11/13 09:32:53;;;;;;;;;;;;;;;9.33;58.83;95903.09;5010666;28;20010;-72
2022/11/13 09:35:32;;;;;;;;;;;;;;;9.35;58.99;95899.06;5010648;28;20011;-72
2022/11/13 09:37:58;;;;;;;;;;;;;;;9.57;58.31;95900.50;5009727;28;20045;-72
2022/11/13 09:40:27;;;;;;;;;;;;;;;9.59;57.36;95898.38;5010580;28;20060;-72
2022/11/13 09:42:52;;;;;;;;;;;;;;;9.62;57.50;95889.81;5011178;28;20053;-73
2022/11/13 09:45:18;;;;;;;;;;;;;;;9.62;57.08;95895.94;5009275;28;20041;-72
2022/11/13 09:47:44;;;;;;;;;;;;;;;9.42;57.45;95842.19;5011299;28;20014;-73
2022/11/13 09:50:09;;;;;;;;;;;;;;;9.73;57.40;95870.09;5010893;28;20007;-73
2022/11/13 09:52:36;;;;;;;;;;;;;;;9.73;56.98;95869.31;5011542;28;20006;-71
2022/11/13 09:55:03;;;;;;;;;;;;;;;9.74;57.33;95876.97;5009856;28;20378;-71
2022/11/13 09:57:28;;;;;;;;;;;;;;;9.83;56.63;95872.66;5011707;28;20144;-70
2022/11/13 09:59:58;;;;;;;;;;;;;;;9.76;56.73;95868.72;5011597;28;20089;-73
2022/11/13 10:02:37;;;;;;;;;;;;;;;9.86;56.93;95861.44;5010835;28;20010;-73
2022/11/13 10:05:08;;;;;;;;;;;;;;;9.94;56.08;95861.91;5009792;28;20383;-71
2022/11/13 10:07:40;;;;;;;;;;;;;;;9.95;57.04;95884.75;5008865;28;20041;-73
2022/11/13 10:10:23;;;;;;;;;;;;;;;10.03;57.52;95881.47;5009512;28;20014;-71
2022/11/13 10:12:51;;;;;;;;;;;;;;;10.19;56.97;95874.16;5010789;28;20006;-72
2022/11/13 10:15:16;;;;;;;;;;;;;;;10.11;56.60;95867.56;5009053;28;20053;-72
2022/11/13 10:17:49;;;;;;;;;;;;;;;10.23;56.58;95867.16;5009409;28;20064;-68
2022/11/13 10:20:20;;;;;;;;;;;;;;;10.31;56.26;95867.38;5009900;28;20421;-69
2022/11/13 10:22:57;;;;;;;;;;;;;;;10.39;55.90;95850.00;5010433;28;20387;-71
2022/11/13 10:25:25;;;;;;;;;;;;;;;10.36;55.90;95843.38;5022134;28;20506;-70
2022/11/13 10:27:57;;;;;;;;;;;;;;;10.37;55.70;95841.50;5030551;28;20014;-71
2022/11/13 10:30:23;;;;;;;;;;;;;;;10.34;55.26;95834.91;5030205;28;20755;-68
2022/11/13 10:32:48;;;;;;;;;;;;;;;10.29;55.67;95834.97;5022126;28;20017;-68
2022/11/13 10:35:32;;;;;;;;;;;;;;;10.24;56.29;95829.72;5011020;28;20006;-68
2022/11/13 10:38:05;;;;;;;;;;;;;;;10.11;56.59;95831.16;5010017;28;20034;-69
2022/11/13 10:40:35;;;;;;;;;;;;;;;9.96;58.04;95833.19;5009906;28;20605;-69
2022/11/13 10:43:04;;;;;;;;;;;;;;;10.11;57.70;95825.81;5009892;28;20017;-68
2022/11/13 10:45:29;;;;;;;;;;;;;;;10.34;56.79;95818.16;5010257;28;20069;-69
2022/11/13 10:47:55;;;;;;;;;;;;;;;10.33;55.69;95814.69;5008035;28;20112;-69
2022/11/13 10:50:20;;;;;;;;;;;;;;;10.41;55.76;95814.06;5010806;28;20096;-69
2022/11/13 10:52:47;;;;;;;;;;;;;;;10.26;55.70;95798.31;5009596;28;20079;-69
2022/11/13 10:55:19;;;;;;;;;;;;;;;10.28;56.79;95798.00;5012920;28;20495;-69
2022/11/13 10:57:54;;;;;;;;;;;;;;;10.41;56.37;95790.13;5009459;28;20061;-69
2022/11/13 11:00:19;;;;;;;;;;;;;;;10.50;56.40;95787.63;5010785;28;20414;-68
2022/11/13 11:02:48;;;;;;;;;;;;;;;10.33;56.06;95793.41;5009347;28;20137;-69
2022/11/13 11:05:18;;;;;;;;;;;;;;;10.45;56.51;95786.91;5008839;28;20746;-68
2022/11/13 11:07:43;;;;;;;;;;;;;;;10.46;56.56;95785.81;5009816;28;20498;-69
2022/11/13 11:10:27;;;;;;;;;;;;;;;10.45;56.47;95778.94;5018359;28;20112;-68
2022/11/13 11:12:54;;;;;;;;;;;;;;;10.41;56.22;95771.50;5030538;28;20028;-68
2022/11/13 11:15:19;;;;;;;;;;;;;;;10.43;56.14;95773.09;5025670;28;20014;-69
2022/11/13 11:17:47;;;;;;;;;;;;;;;10.32;56.62;95767.13;5008752;28;20010;-68
2022/11/13 11:20:19;;;;;;;;;;;;;;;10.34;56.29;95768.44;5009611;28;20025;-69
2022/11/13 11:22:46;;;;;;;;;;;;;;;10.35;55.93;95767.34;5014380;28;20007;-68
2022/11/13 11:25:17;;;;;;;;;;;;;;;10.37;56.76;95770.50;5011323;28;20109;-68
2022/11/13 11:27:45;;;;;;;;;;;;;;;10.35;57.08;95755.91;5013083;28;20017;-68
2022/11/13 11:30:25;;;;;;;;;;;;;;;10.38;56.51;95765.97;5014283;28;20026;-69
2022/11/13 11:32:58;;;;;;;;;;;;;;;10.26;57.83;95747.78;4994223;28;20010;-68
2022/11/13 11:35:26;;;;;;;;;;;;;;;10.37;57.48;95748.44;5013865;28;20049;-67
2022/11/13 11:38:01;;;;;;;;;;;;;;;10.41;57.22;95747.56;5013939;28;20370;-67
2022/11/13 11:40:34;;;;;;;;;;;;;;;10.47;57.54;95747.50;5011761;28;20565;-67
2022/11/13 11:43:00;;;;;;;;;;;;;;;10.49;57.63;95740.00;5012893;28;20005;-68
2022/11/13 11:45:28;;;;;;;;;;;;;;;10.54;56.54;95723.97;5013571;28;20033;-68
2022/11/13 11:47:54;;;;;;;;;;;;;;;10.56;57.43;95724.50;5012466;28;20029;-68
2022/11/13 11:50:42;;;;;;;;;;;;;;;10.64;56.89;95710.53;5012749;28;20422;-68
2022/11/13 11:53:18;;;;;;;;;;;;;;;10.66;56.96;95703.06;5010916;28;20092;-67
2022/11/13 11:56:06;;;;;;;;;;;;;;;10.54;56.65;95692.84;5021966;28;20067;-67
2022/11/13 11:58:31;;;;;;;;;;;;;;;10.57;57.60;95699.47;5019458;28;20056;-69
2022/11/13 12:01:02;;;;;;;;;;;;;;;10.68;57.41;95696.34;5013983;28;20042;-68
2022/11/13 12:03:33;;;;;;;;;;;;;;;10.75;57.53;95690.69;5012323;28;20121;-68
2022/11/13 12:06:06;;;;;;;;;;;;;;;10.78;57.34;95690.09;5013345;28;20006;-68
2022/11/13 12:08:31;;;;;;;;;;;;;;;10.76;57.83;95678.16;5013545;28;20021;-68
2022/11/13 12:11:15;;;;;;;;;;;;;;;10.89;57.56;95688.81;5011764;28;20033;-68
2022/11/13 12:14:00;;;;;;;;;;;;;;;10.99;56.48;95706.50;5012628;28;20006;-67
2022/11/13 12:16:25;;;;;;;;;;;;;;;11.07;56.59;95697.06;5013118;28;20037;-67
2022/11/13 12:18:50;;;;;;;;;;;;;;;11.10;56.30;95697.25;5011871;28;20057;-67
2022/11/13 12:21:15;;;;;;;;;;;;;;;11.15;56.36;95691.06;5012937;28;19999;-68
2022/11/13 12:24:00;;;;;;;;;;;;;;;11.13;56.88;95674.59;5011737;28;20014;-67
2022/11/13 12:26:27;;;;;;;;;;;;;;;11.16;56.08;95676.69;5026180;28;20021;-68
2022/11/13 12:28:55;;;;;;;;;;;;;;;11.25;56.04;95682.09;5031105;28;20014;-68
2022/11/13 12:31:26;;;;;;;;;;;;;;;11.31;56.32;95686.25;5031295;28;20429;-68
2022/11/13 12:34:04;;;;;;;;;;;;;;;11.29;55.82;95665.22;5024771;28;20019;-68
2022/11/13 12:36:30;;;;;;;;;;;;;;;11.34;56.46;95651.81;5012721;28;20012;-68
2022/11/13 12:39:34;;;;;;;;;;;;;;;11.30;56.02;95655.38;5011652;28;20014;-68
2022/11/13 12:42:17;;;;;;;;;;;;;;;11.40;56.01;95645.31;5009681;28;20057;-68
2022/11/13 12:44:49;;;;;;;;;;;;;;;11.38;55.81;95630.72;5010321;28;20011;-67
2022/11/13 12:47:15;;;;;;;;;;;;;;;11.10;57.17;95633.34;5010743;28;20018;-68
2022/11/13 12:49:41;;;;;;;;;;;;;;;11.16;57.48;95629.53;5011123;28;20086;-67
2022/11/13 12:52:19;;;;;;;;;;;;;;;11.46;57.10;95632.69;5012609;28;20006;-68
2022/11/13 12:54:45;;;;;;;;;;;;;;;11.72;56.50;95640.97;5011231;28;20065;-68